createdAt,value
2022-12-20T00:01:27.790Z,6.83
2022-12-20T00:03:56.696Z,6.82
2022-12-20T00:06:24.460Z,6.83
2022-12-20T00:08:55.995Z,6.85
2022-12-20T00:11:23.571Z,6.86
2022-12-20T00:13:50.797Z,6.88
2022-12-20T00:16:20.194Z,6.88
2022-12-20T00:18:47.641Z,6.90
2022-12-20T00:21:15.220Z,6.91
2022-12-20T00:23:42.322Z,6.94
2022-12-20T00:26:08.900Z,6.93
2022-12-20T00:28:36.858Z,6.92
2022-12-20T00:31:04.788Z,6.92
2022-12-20T00:33:32.345Z,6.94
2022-12-20T00:36:00.694Z,6.98
2022-12-20T00:38:27.916Z,7.04
2022-12-20T00:41:06.735Z,7.09
2022-12-20T00:43:34.271Z,7.09
2022-12-20T00:46:01.910Z,7.11
2022-12-20T00:48:30.603Z,7.15
2022-12-20T00:51:05.049Z,7.18
2022-12-20T00:53:32.270Z,7.20
2022-12-20T00:55:59.153Z,7.23
2022-12-20T00:58:26.942Z,7.25
2022-12-20T01:00:56.795Z,7.29
2022-12-20T01:03:25.304Z,7.33
2022-12-20T01:05:54.430Z,7.33
2022-12-20T01:08:22.060Z,7.32
2022-12-20T01:11:17.883Z,7.34
2022-12-20T01:13:47.344Z,7.34
2022-12-20T01:16:15.829Z,7.34
2022-12-20T01:18:42.543Z,7.33
2022-12-20T01:21:11.424Z,7.29
2022-12-20T01:23:38.951Z,7.27
2022-12-20T01:26:09.378Z,7.28
2022-12-20T01:28:36.660Z,7.29
2022-12-20T01:31:07.995Z,7.32
2022-12-20T01:33:35.752Z,7.35
2022-12-20T01:36:05.865Z,7.35
2022-12-20T01:38:33.474Z,7.34
2022-12-20T01:41:00.351Z,7.30
2022-12-20T01:43:52.284Z,7.26
2022-12-20T01:46:21.391Z,7.23
2022-12-20T01:48:56.478Z,7.22
2022-12-20T01:51:24.651Z,7.21
2022-12-20T01:53:57.440Z,7.20
2022-12-20T01:56:24.359Z,7.19
2022-12-20T01:58:53.241Z,7.19
2022-12-20T02:01:22.857Z,7.21
2022-12-20T02:03:51.349Z,7.22
2022-12-20T02:06:20.753Z,7.23
2022-12-20T02:08:51.104Z,7.20
2022-12-20T02:11:29.510Z,7.17
2022-12-20T02:14:35.352Z,7.18
2022-12-20T02:17:29.690Z,7.18
2022-12-20T02:20:53.545Z,7.14
2022-12-20T02:23:46.255Z,7.14
2022-12-20T02:26:12.775Z,7.12
2022-12-20T02:29:16.723Z,7.10
2022-12-20T02:31:56.225Z,7.06
2022-12-20T02:34:27.807Z,7.04
2022-12-20T02:36:54.578Z,7.00
2022-12-20T02:39:23.802Z,6.98
2022-12-20T02:41:57.461Z,6.95
2022-12-20T02:44:47.021Z,6.94
2022-12-20T02:47:19.915Z,6.94
2022-12-20T02:49:49.736Z,6.95
2022-12-20T02:52:21.254Z,6.96
2022-12-20T02:54:48.740Z,6.94
2022-12-20T02:57:21.517Z,6.91
2022-12-20T03:00:10.872Z,6.89
2022-12-20T03:02:57.350Z,6.88
2022-12-20T03:05:27.281Z,6.88
2022-12-20T03:07:55.336Z,6.87
2022-12-20T03:10:23.689Z,6.85
2022-12-20T03:12:50.459Z,6.83
2022-12-20T03:15:17.182Z,6.80
2022-12-20T03:17:43.878Z,6.78
2022-12-20T03:20:11.440Z,6.75
2022-12-20T03:22:39.082Z,6.74
2022-12-20T03:25:06.436Z,6.73
2022-12-20T03:27:33.650Z,6.72
2022-12-20T03:30:03.704Z,6.70
2022-12-20T03:32:30.487Z,6.68
2022-12-20T03:34:57.197Z,6.65
2022-12-20T03:37:24.091Z,6.65
2022-12-20T03:39:50.809Z,6.65
2022-12-20T03:42:18.793Z,6.65
2022-12-20T03:44:45.589Z,6.66
2022-12-20T03:47:12.341Z,6.64
2022-12-20T03:49:39.024Z,6.62
2022-12-20T03:52:05.990Z,6.62
2022-12-20T03:54:32.813Z,6.61
2022-12-20T03:56:59.414Z,6.61
2022-12-20T03:59:26.134Z,6.62
2022-12-20T04:01:53.102Z,6.63
2022-12-20T04:04:19.878Z,6.63
2022-12-20T04:06:46.592Z,6.62
2022-12-20T04:09:13.212Z,6.61
2022-12-20T04:11:39.965Z,6.60
2022-12-20T04:14:06.884Z,6.59
2022-12-20T04:16:34.242Z,6.57
2022-12-20T04:19:01.095Z,6.57
2022-12-20T04:21:34.417Z,6.55
2022-12-20T04:24:03.184Z,6.54
2022-12-20T04:26:30.140Z,6.55
2022-12-20T04:28:56.852Z,6.52
2022-12-20T04:31:24.540Z,6.49
2022-12-20T04:33:51.841Z,6.48
2022-12-20T04:36:18.703Z,6.48
2022-12-20T04:38:45.410Z,6.48
2022-12-20T04:41:22.477Z,6.47
2022-12-20T04:43:55.672Z,6.47
2022-12-20T04:46:23.871Z,6.47
2022-12-20T04:48:59.368Z,6.46
2022-12-20T04:51:27.922Z,6.46
2022-12-20T04:53:55.153Z,6.44
2022-12-20T04:56:24.892Z,6.43
2022-12-20T04:58:54.025Z,6.43
2022-12-20T05:01:21.392Z,6.44
2022-12-20T05:03:49.524Z,6.43
2022-12-20T05:06:17.269Z,6.42
2022-12-20T05:08:44.029Z,6.44
2022-12-20T05:11:11.381Z,6.41
2022-12-20T05:13:38.112Z,6.41
2022-12-20T05:16:05.310Z,6.42
2022-12-20T05:18:32.527Z,6.43
2022-12-20T05:21:19.281Z,6.46
2022-12-20T05:24:05.752Z,6.51
2022-12-20T05:26:36.531Z,6.55
2022-12-20T05:29:04.355Z,6.61
2022-12-20T05:31:31.905Z,6.64
2022-12-20T05:33:58.827Z,6.65
2022-12-20T05:36:25.493Z,6.65
2022-12-20T05:38:52.526Z,6.63
2022-12-20T05:41:21.260Z,6.64
2022-12-20T05:43:47.989Z,6.66
2022-12-20T05:46:14.623Z,6.65
2022-12-20T05:48:41.371Z,6.62
2022-12-20T05:51:08.235Z,6.61
2022-12-20T05:53:34.881Z,6.58
2022-12-20T05:56:01.739Z,6.55
2022-12-20T05:58:28.932Z,6.52
2022-12-20T06:00:56.342Z,6.48
2022-12-20T06:03:23.339Z,6.48
2022-12-20T06:05:50.080Z,6.48
2022-12-20T06:08:16.785Z,6.46
2022-12-20T06:10:43.703Z,6.44
2022-12-20T06:13:11.256Z,6.39
2022-12-20T06:15:38.575Z,6.35
2022-12-20T06:18:06.312Z,6.30
2022-12-20T06:20:34.612Z,6.30
2022-12-20T06:23:02.171Z,6.28
2022-12-20T06:25:28.887Z,6.26
2022-12-20T06:28:00.570Z,6.24
2022-12-20T06:30:33.438Z,6.22
2022-12-20T06:33:02.629Z,6.21
2022-12-20T06:35:30.339Z,6.19
2022-12-20T06:37:57.131Z,6.17
2022-12-20T06:40:23.947Z,6.15
2022-12-20T06:42:50.578Z,6.13
2022-12-20T06:45:17.342Z,6.12
2022-12-20T06:47:44.709Z,6.11
2022-12-20T06:50:11.725Z,6.09
2022-12-20T06:52:38.408Z,6.09
2022-12-20T06:55:05.446Z,6.05
2022-12-20T06:57:33.199Z,6.02
2022-12-20T07:00:00.203Z,6.00
2022-12-20T07:02:27.873Z,6.00
2022-12-20T07:04:55.301Z,5.99
2022-12-20T07:07:22.100Z,5.98
2022-12-20T07:09:49.013Z,5.95
2022-12-20T07:12:15.803Z,5.93
2022-12-20T07:14:42.558Z,5.92
2022-12-20T07:17:09.660Z,5.87
2022-12-20T07:19:36.598Z,5.87
2022-12-20T07:22:04.580Z,5.87
2022-12-20T07:24:31.924Z,5.89
2022-12-20T07:26:59.189Z,5.91
2022-12-20T07:29:25.916Z,5.89
2022-12-20T07:31:53.163Z,5.90
2022-12-20T07:34:20.127Z,5.90
2022-12-20T07:36:47.120Z,5.91
2022-12-20T07:39:13.950Z,5.89
2022-12-20T07:41:40.619Z,5.89
2022-12-20T07:44:07.445Z,5.88
2022-12-20T07:46:34.773Z,5.87
2022-12-20T07:49:01.698Z,5.85
2022-12-20T07:51:31.637Z,5.82
2022-12-20T07:54:03.229Z,5.82
2022-12-20T07:56:36.054Z,5.83
2022-12-20T07:59:10.696Z,5.82
2022-12-20T08:01:38.057Z,5.80
2022-12-20T08:04:11.342Z,5.78
2022-12-20T08:06:39.280Z,5.75
2022-12-20T08:09:07.268Z,5.74
2022-12-20T08:11:37.104Z,5.73
2022-12-20T08:14:07.032Z,5.72
2022-12-20T08:16:34.308Z,5.71
2022-12-20T08:19:01.148Z,5.69
2022-12-20T08:21:29.231Z,5.69
2022-12-20T08:23:56.727Z,5.68
2022-12-20T08:26:23.503Z,5.68
2022-12-20T08:28:50.258Z,5.67
2022-12-20T08:31:17.046Z,5.67
2022-12-20T08:33:43.854Z,5.67
2022-12-20T08:36:12.651Z,5.67
2022-12-20T08:38:39.969Z,5.65
2022-12-20T08:41:11.079Z,5.66
2022-12-20T08:43:38.691Z,5.66
2022-12-20T08:46:07.160Z,5.65
2022-12-20T08:48:34.197Z,5.65
2022-12-20T08:51:03.812Z,5.64
2022-12-20T08:53:31.280Z,5.64
2022-12-20T08:56:05.443Z,5.62
2022-12-20T08:58:32.443Z,5.62
2022-12-20T09:01:06.612Z,5.61
2022-12-20T09:03:35.291Z,5.63
2022-12-20T09:06:06.717Z,5.61
2022-12-20T09:08:35.143Z,5.61
2022-12-20T09:11:06.896Z,5.63
2022-12-20T09:13:39.508Z,5.62
2022-12-20T09:16:11.246Z,5.61
2022-12-20T09:18:37.900Z,5.63
2022-12-20T09:21:06.657Z,5.63
2022-12-20T09:23:35.253Z,5.64
2022-12-20T09:26:07.715Z,5.64
2022-12-20T09:28:34.691Z,5.64
2022-12-20T09:31:03.296Z,5.63
2022-12-20T09:33:31.848Z,5.65
2022-12-20T09:35:59.496Z,5.64
2022-12-20T09:38:26.915Z,5.63
2022-12-20T09:40:56.979Z,5.65
2022-12-20T09:43:24.327Z,5.65
2022-12-20T09:45:53.875Z,5.65
2022-12-20T09:48:25.532Z,5.66
2022-12-20T09:51:10.250Z,5.66
2022-12-20T09:53:52.184Z,5.66
2022-12-20T09:56:30.248Z,5.69
2022-12-20T09:59:12.790Z,5.71
2022-12-20T10:01:43.290Z,5.72
2022-12-20T10:04:39.982Z,5.72
2022-12-20T10:07:24.912Z,5.75
2022-12-20T10:10:14.604Z,5.80
2022-12-20T10:12:55.267Z,5.88
2022-12-20T10:15:41.328Z,5.94
2022-12-20T10:18:30.338Z,5.94
2022-12-20T10:21:36.897Z,5.94
2022-12-20T10:24:18.427Z,5.92
2022-12-20T10:26:49.149Z,5.93
2022-12-20T10:29:15.970Z,5.96
2022-12-20T10:31:43.115Z,5.99
2022-12-20T10:34:09.870Z,6.02
2022-12-20T10:36:37.573Z,6.04
2022-12-20T10:39:07.886Z,6.06
2022-12-20T10:41:40.441Z,6.10
2022-12-20T10:44:30.341Z,6.13
2022-12-20T10:46:59.584Z,6.16
2022-12-20T10:49:33.170Z,6.19
2022-12-20T10:52:08.760Z,6.21
2022-12-20T10:54:43.172Z,6.23
2022-12-20T10:57:30.105Z,6.24
2022-12-20T11:00:00.310Z,6.26
2022-12-20T11:02:40.723Z,6.28
2022-12-20T11:05:11.384Z,6.28
2022-12-20T11:08:17.302Z,6.30
2022-12-20T11:10:38.661Z,6.31
2022-12-20T11:13:06.375Z,6.32
2022-12-20T11:15:35.274Z,6.35
2022-12-20T11:18:24.299Z,6.39
2022-12-20T11:21:11.072Z,6.42
2022-12-20T11:24:06.440Z,6.46
2022-12-20T11:27:15.492Z,6.46
2022-12-20T11:30:04.127Z,6.48
2022-12-20T11:32:54.974Z,6.51
2022-12-20T11:35:40.486Z,6.53
2022-12-20T11:38:10.324Z,6.57
2022-12-20T11:41:23.759Z,6.59
2022-12-20T11:44:26.735Z,6.59
2022-12-20T11:47:22.165Z,6.60
2022-12-20T11:50:20.565Z,6.61
2022-12-20T11:52:56.239Z,6.62
2022-12-20T11:55:29.896Z,6.63
2022-12-20T11:58:18.954Z,6.65
2022-12-20T12:00:54.352Z,6.65
2022-12-20T12:03:31.452Z,6.68
2022-12-20T12:06:16.489Z,6.70
2022-12-20T12:08:50.475Z,6.73
2022-12-20T12:14:35.777Z,6.77
2022-12-20T12:17:10.465Z,6.79
2022-12-20T12:19:43.421Z,6.79
2022-12-20T12:22:16.867Z,6.81
2022-12-20T12:24:53.111Z,6.82
2022-12-20T12:27:25.549Z,6.85
2022-12-20T12:29:54.530Z,6.87
2022-12-20T12:32:47.104Z,6.88
2022-12-20T12:35:31.918Z,6.90
2022-12-20T12:38:26.613Z,6.90
2022-12-20T12:41:05.457Z,6.90
2022-12-20T12:43:41.012Z,6.90
2022-12-20T12:46:14.996Z,6.90
2022-12-20T12:48:56.785Z,6.91
2022-12-20T12:51:31.639Z,6.92
2022-12-20T12:54:04.452Z,6.93
2022-12-20T12:56:46.278Z,6.91
2022-12-20T12:59:13.434Z,6.93
2022-12-20T13:01:54.538Z,6.95
2022-12-20T13:04:21.354Z,6.95
2022-12-20T13:06:48.022Z,6.96
2022-12-20T13:09:22.763Z,6.95
2022-12-20T13:11:55.563Z,6.97
2022-12-20T13:14:29.462Z,6.98
2022-12-20T13:17:14.677Z,6.98
2022-12-20T13:19:53.638Z,6.99
2022-12-20T13:22:22.846Z,7.01
2022-12-20T13:24:58.108Z,7.04
2022-12-20T13:27:27.169Z,7.05
2022-12-20T13:29:59.262Z,7.07
2022-12-20T13:33:17.370Z,7.09
2022-12-20T13:35:58.981Z,7.13
2022-12-20T13:38:54.654Z,7.16
2022-12-20T13:41:35.791Z,7.19
2022-12-20T13:44:14.998Z,7.22
2022-12-20T13:46:47.477Z,7.27
2022-12-20T13:49:38.684Z,7.27
2022-12-20T13:52:11.401Z,7.29
2022-12-20T13:54:44.635Z,7.31
2022-12-20T13:57:41.853Z,7.32
2022-12-20T14:00:18.014Z,7.38
2022-12-20T14:02:45.588Z,7.40
2022-12-20T14:05:26.703Z,7.40
2022-12-20T14:07:58.733Z,7.41
2022-12-20T14:10:28.833Z,7.41
2022-12-20T14:12:56.791Z,7.39
2022-12-20T14:15:36.114Z,7.35
2022-12-20T14:18:18.123Z,7.32
2022-12-20T14:20:47.295Z,7.30
2022-12-20T14:23:22.116Z,7.26
2022-12-20T14:25:55.143Z,7.21
2022-12-20T14:28:31.197Z,7.15
2022-12-20T14:31:01.232Z,7.10
2022-12-20T14:33:38.096Z,7.04
2022-12-20T14:36:16.886Z,6.99
2022-12-20T14:38:46.921Z,6.96
2022-12-20T14:41:36.151Z,6.91
2022-12-20T14:44:21.808Z,6.89
2022-12-20T14:46:58.973Z,6.85
2022-12-20T14:49:31.834Z,6.82
2022-12-20T14:52:20.756Z,6.80
2022-12-20T14:55:08.364Z,6.77
2022-12-20T14:57:36.010Z,6.74
2022-12-20T15:00:14.718Z,6.71
2022-12-20T15:02:42.138Z,6.67
2022-12-20T15:05:33.970Z,6.66
2022-12-20T15:08:24.332Z,6.61
2022-12-20T15:10:53.966Z,6.59
2022-12-20T15:13:25.787Z,6.55
2022-12-20T15:15:52.715Z,6.56
2022-12-20T15:18:21.520Z,6.54
2022-12-20T15:21:05.364Z,6.49
2022-12-20T15:23:33.115Z,6.48
2022-12-20T15:25:59.901Z,6.45
2022-12-20T15:28:27.171Z,6.42
2022-12-20T15:30:55.578Z,6.39
2022-12-20T15:33:29.090Z,6.36
2022-12-20T15:35:56.580Z,6.34
2022-12-20T15:38:54.858Z,6.32
2022-12-20T15:41:29.151Z,6.29
2022-12-20T15:43:59.864Z,6.27
2022-12-20T15:46:27.388Z,6.26
2022-12-20T15:48:54.434Z,6.24
2022-12-20T15:51:31.564Z,6.24
2022-12-20T15:53:59.261Z,6.26
2022-12-20T15:56:27.274Z,6.24
2022-12-20T15:58:54.593Z,6.24
2022-12-20T16:01:29.615Z,6.22
2022-12-20T16:03:57.838Z,6.17
2022-12-20T16:06:24.583Z,6.12
2022-12-20T16:08:51.438Z,6.04
2022-12-20T16:11:29.275Z,6.00
2022-12-20T16:13:57.915Z,5.96
2022-12-20T16:16:35.774Z,5.95
2022-12-20T16:19:06.493Z,5.92
2022-12-20T16:21:36.192Z,5.90
2022-12-20T16:24:03.572Z,5.88
2022-12-20T16:26:30.386Z,5.85
2022-12-20T16:28:57.293Z,5.82
2022-12-20T16:31:33.165Z,5.80
2022-12-20T16:34:05.752Z,5.77
2022-12-20T16:36:32.600Z,5.77
2022-12-20T16:38:59.678Z,5.74
2022-12-20T16:41:30.226Z,5.72
2022-12-20T16:43:59.428Z,5.70
2022-12-20T16:46:29.176Z,5.69
2022-12-20T16:48:58.684Z,5.68
2022-12-20T16:51:28.426Z,5.69
2022-12-20T16:54:19.506Z,5.68
2022-12-20T16:56:47.730Z,5.64
2022-12-20T16:59:23.232Z,5.62
2022-12-20T17:01:53.219Z,5.59
2022-12-20T17:04:22.104Z,5.57
2022-12-20T17:06:50.407Z,5.54
2022-12-20T17:12:05.186Z,5.51
2022-12-20T17:14:31.880Z,5.51
2022-12-20T17:16:59.834Z,5.51
2022-12-20T17:19:26.623Z,5.50
2022-12-20T17:24:37.914Z,5.49
2022-12-20T17:27:04.942Z,5.49
2022-12-20T17:29:32.708Z,5.49
2022-12-20T17:31:59.539Z,5.48
2022-12-20T17:34:28.678Z,5.47
2022-12-20T17:36:57.320Z,5.45
2022-12-20T17:39:25.554Z,5.44
2022-12-20T17:41:54.092Z,5.42
2022-12-20T17:44:26.304Z,5.41
2022-12-20T17:46:53.783Z,5.41
2022-12-20T17:49:21.246Z,5.41
2022-12-20T17:51:48.006Z,5.39
2022-12-20T17:54:20.865Z,5.36
2022-12-20T17:56:48.184Z,5.36
2022-12-20T17:59:14.948Z,5.37
2022-12-20T18:01:43.157Z,5.37
2022-12-20T18:04:13.410Z,5.37
2022-12-20T18:06:42.174Z,5.37
2022-12-20T18:09:20.376Z,5.37
2022-12-20T18:11:48.097Z,5.35
2022-12-20T18:14:15.455Z,5.33
2022-12-20T18:16:42.712Z,5.33
2022-12-20T18:19:16.157Z,5.34
2022-12-20T18:21:43.750Z,5.31
2022-12-20T18:24:15.964Z,5.29
2022-12-20T18:26:43.525Z,5.29
2022-12-20T18:29:10.836Z,5.28
2022-12-20T18:31:38.224Z,5.29
2022-12-20T18:34:05.118Z,5.28
2022-12-20T18:36:35.880Z,5.28
2022-12-20T18:39:05.681Z,5.29
2022-12-20T18:41:32.859Z,5.29
2022-12-20T18:44:01.752Z,5.31
2022-12-20T18:46:29.862Z,5.32
2022-12-20T18:48:58.930Z,5.33
2022-12-20T18:51:28.627Z,5.35
2022-12-20T18:53:57.309Z,5.38
2022-12-20T18:56:27.101Z,5.38
2022-12-20T18:58:53.725Z,5.38
2022-12-20T19:01:24.342Z,5.39
2022-12-20T19:03:51.979Z,5.39
2022-12-20T19:06:19.852Z,5.41
2022-12-20T19:08:47.469Z,5.42
2022-12-20T19:11:17.038Z,5.42
2022-12-20T19:13:45.258Z,5.42
2022-12-20T19:16:15.691Z,5.41
2022-12-20T19:18:43.460Z,5.44
2022-12-20T19:21:10.032Z,5.50
2022-12-20T19:23:38.661Z,5.52
2022-12-20T19:26:08.124Z,5.52
2022-12-20T19:28:35.889Z,5.52
2022-12-20T19:31:21.060Z,5.54
2022-12-20T19:33:48.636Z,5.52
2022-12-20T19:36:16.578Z,5.53
2022-12-20T19:38:47.626Z,5.52
2022-12-20T19:41:14.763Z,5.50
2022-12-20T19:43:42.161Z,5.47
2022-12-20T19:46:12.314Z,5.48
2022-12-20T19:48:39.116Z,5.49
2022-12-20T19:51:10.272Z,5.48
2022-12-20T19:53:40.803Z,5.46
2022-12-20T19:56:08.754Z,5.44
2022-12-20T19:58:36.611Z,5.41
2022-12-20T20:01:08.448Z,5.41
2022-12-20T20:03:36.751Z,5.41
2022-12-20T20:06:04.843Z,5.40
2022-12-20T20:08:32.603Z,5.39
2022-12-20T20:11:05.336Z,5.40
2022-12-20T20:13:35.777Z,5.42
2022-12-20T20:16:03.948Z,5.44
2022-12-20T20:18:36.280Z,5.43
2022-12-20T20:21:13.648Z,5.42
2022-12-20T20:23:40.376Z,5.43
2022-12-20T20:26:13.836Z,5.42
2022-12-20T20:28:44.934Z,5.41
2022-12-20T20:31:14.707Z,5.42
2022-12-20T20:33:42.288Z,5.41
2022-12-20T20:36:13.329Z,5.41
2022-12-20T20:38:42.558Z,5.42
2022-12-20T20:41:10.101Z,5.45
2022-12-20T20:43:38.275Z,5.47
2022-12-20T20:46:07.591Z,5.47
2022-12-20T20:48:35.371Z,5.49
2022-12-20T20:51:02.190Z,5.49
2022-12-20T20:53:33.447Z,5.51
2022-12-20T20:56:05.054Z,5.52
2022-12-20T20:58:32.909Z,5.53
2022-12-20T21:01:01.546Z,5.50
2022-12-20T21:03:29.984Z,5.51
2022-12-20T21:08:43.855Z,5.57
2022-12-20T21:11:11.048Z,5.54
2022-12-20T21:13:38.660Z,5.53
2022-12-20T21:16:12.518Z,5.52
2022-12-20T21:18:40.037Z,5.53
2022-12-20T21:21:08.855Z,5.52
2022-12-20T21:23:35.600Z,5.56
2022-12-20T21:26:03.628Z,5.56
2022-12-20T21:28:31.641Z,5.56
2022-12-20T21:31:00.289Z,5.58
2022-12-20T21:33:27.403Z,5.60
2022-12-20T21:36:05.451Z,5.61
2022-12-20T21:38:32.403Z,5.63
2022-12-20T21:41:04.491Z,5.63
2022-12-20T21:43:32.489Z,5.65
2022-12-20T21:46:00.840Z,5.64
2022-12-20T21:48:27.704Z,5.65
2022-12-20T21:51:11.958Z,5.68
2022-12-20T21:53:44.894Z,5.68
2022-12-20T21:56:12.823Z,5.67
2022-12-20T21:58:39.954Z,5.65
2022-12-20T22:01:08.313Z,5.65
2022-12-20T22:03:36.050Z,5.61
2022-12-20T22:06:03.563Z,5.59
2022-12-20T22:08:31.821Z,5.56
2022-12-20T22:11:12.909Z,5.55
2022-12-20T22:13:41.987Z,5.53
2022-12-20T22:16:10.795Z,5.56
2022-12-20T22:18:39.185Z,5.53
2022-12-20T22:21:07.653Z,5.57
2022-12-20T22:23:34.365Z,5.55
2022-12-20T22:26:06.845Z,5.54
2022-12-20T22:28:34.055Z,5.54
2022-12-20T22:31:00.813Z,5.55
2022-12-20T22:33:33.291Z,5.56
2022-12-20T22:36:00.862Z,5.58
2022-12-20T22:38:28.498Z,5.58
2022-12-20T22:40:58.920Z,5.59
2022-12-20T22:43:26.123Z,5.57
2022-12-20T22:45:57.444Z,5.57
2022-12-20T22:48:45.558Z,5.60
2022-12-20T22:51:20.642Z,5.65
2022-12-20T22:53:48.062Z,5.65
2022-12-20T22:56:16.306Z,5.64
2022-12-20T22:58:43.125Z,5.65
2022-12-20T23:01:12.606Z,5.64
2022-12-20T23:03:39.660Z,5.63
2022-12-20T23:06:08.715Z,5.60
2022-12-20T23:08:36.884Z,5.57
2022-12-20T23:11:25.467Z,5.59
2022-12-20T23:14:10.909Z,5.63
2022-12-20T23:16:38.180Z,5.66
2022-12-20T23:19:04.929Z,5.64
2022-12-20T23:21:50.680Z,5.64
2022-12-20T23:24:17.552Z,5.64
2022-12-20T23:26:44.491Z,5.63
2022-12-20T23:29:14.207Z,5.60
2022-12-20T23:31:41.088Z,5.59
2022-12-20T23:34:08.170Z,5.60
2022-12-20T23:36:34.893Z,5.63
2022-12-20T23:39:01.897Z,5.66
2022-12-20T23:41:28.798Z,5.63
2022-12-20T23:43:56.187Z,5.60
2022-12-20T23:46:23.771Z,5.54
2022-12-20T23:48:51.925Z,5.50
2022-12-20T23:51:19.428Z,5.45
2022-12-20T23:53:46.083Z,5.44
2022-12-20T23:56:17.817Z,5.40
2022-12-20T23:58:46.084Z,5.36
